sensor_id;sensor_type;location;lat;lon;timestamp;pressure;altitude;pressure_sealevel;temperature
72675;BMP280;60752;53.962;9.614;2022-09-02T00:01:33;102277.81;;;13.98
72675;BMP280;60752;53.962;9.614;2022-09-02T00:06:36;102275.94;;;13.93
72675;BMP280;60752;53.962;9.614;2022-09-02T00:11:38;102272.28;;;13.94
72675;BMP280;60752;53.962;9.614;2022-09-02T00:16:39;102275.13;;;13.92
72675;BMP280;60752;53.962;9.614;2022-09-02T00:21:41;102263.56;;;13.88
72675;BMP280;60752;53.962;9.614;2022-09-02T00:26:42;102261.41;;;13.85
72675;BMP280;60752;53.962;9.614;2022-09-02T00:31:44;102266.19;;;13.88
72675;BMP280;60752;53.962;9.614;2022-09-02T00:36:46;102263.59;;;13.93
72675;BMP280;60752;53.962;9.614;2022-09-02T00:41:46;102262.78;;;13.93
72675;BMP280;60752;53.962;9.614;2022-09-02T00:46:48;102264.09;;;13.90
72675;BMP280;60752;53.962;9.614;2022-09-02T00:51:53;102263.28;;;13.85
72675;BMP280;60752;53.962;9.614;2022-09-02T00:56:54;102263.56;;;13.88
72675;BMP280;60752;53.962;9.614;2022-09-02T01:01:54;102257.44;;;13.78
72675;BMP280;60752;53.962;9.614;2022-09-02T01:06:56;102260.03;;;13.73
72675;BMP280;60752;53.962;9.614;2022-09-02T01:11:57;102266.03;;;13.68
72675;BMP280;60752;53.962;9.614;2022-09-02T01:16:58;102262.31;;;13.64
72675;BMP280;60752;53.962;9.614;2022-09-02T01:22:01;102262.03;;;13.55
72675;BMP280;60752;53.962;9.614;2022-09-02T01:27:05;102259.03;;;13.47
72675;BMP280;60752;53.962;9.614;2022-09-02T01:32:05;102260.03;;;13.36
72675;BMP280;60752;53.962;9.614;2022-09-02T01:37:07;102255.09;;;13.17
72675;BMP280;60752;53.962;9.614;2022-09-02T01:42:08;102251.63;;;13.12
72675;BMP280;60752;53.962;9.614;2022-09-02T01:47:08;102258.94;;;13.05
72675;BMP280;60752;53.962;9.614;2022-09-02T01:52:10;102251.84;;;13.05
72675;BMP280;60752;53.962;9.614;2022-09-02T01:57:11;102248.88;;;12.96
72675;BMP280;60752;53.962;9.614;2022-09-02T02:02:12;102244.66;;;12.95
72675;BMP280;60752;53.962;9.614;2022-09-02T02:07:16;102246.38;;;12.85
72675;BMP280;60752;53.962;9.614;2022-09-02T02:12:17;102236.84;;;12.79
72675;BMP280;60752;53.962;9.614;2022-09-02T02:17:18;102234.97;;;12.74
72675;BMP280;60752;53.962;9.614;2022-09-02T02:22:19;102234.44;;;12.77
72675;BMP280;60752;53.962;9.614;2022-09-02T02:27:20;102236.56;;;12.75
72675;BMP280;60752;53.962;9.614;2022-09-02T02:32:20;102233.66;;;12.77
72675;BMP280;60752;53.962;9.614;2022-09-02T02:37:22;102234.28;;;12.84
72675;BMP280;60752;53.962;9.614;2022-09-02T02:42:23;102226.09;;;12.80
72675;BMP280;60752;53.962;9.614;2022-09-02T02:47:23;102224.28;;;12.81
72675;BMP280;60752;53.962;9.614;2022-09-02T02:52:25;102221.25;;;12.67
72675;BMP280;60752;53.962;9.614;2022-09-02T02:57:25;102215.94;;;12.62
72675;BMP280;60752;53.962;9.614;2022-09-02T03:02:26;102219.22;;;12.52
72675;BMP280;60752;53.962;9.614;2022-09-02T03:07:28;102222.16;;;12.56
72675;BMP280;60752;53.962;9.614;2022-09-02T03:12:28;102225.06;;;12.59
72675;BMP280;60752;53.962;9.614;2022-09-02T03:17:29;102225.13;;;12.64
72675;BMP280;60752;53.962;9.614;2022-09-02T03:22:31;102224.13;;;12.71
72675;BMP280;60752;53.962;9.614;2022-09-02T03:27:31;102216.59;;;12.74
72675;BMP280;60752;53.962;9.614;2022-09-02T03:32:32;102218.16;;;12.75
72675;BMP280;60752;53.962;9.614;2022-09-02T03:37:34;102218.66;;;12.72
72675;BMP280;60752;53.962;9.614;2022-09-02T03:42:34;102210.94;;;12.65
72675;BMP280;60752;53.962;9.614;2022-09-02T03:47:36;102205.69;;;12.65
72675;BMP280;60752;53.962;9.614;2022-09-02T03:52:37;102203.84;;;12.61
72675;BMP280;60752;53.962;9.614;2022-09-02T03:57:38;102204.03;;;12.59
72675;BMP280;60752;53.962;9.614;2022-09-02T04:02:38;102203.19;;;12.54
72675;BMP280;60752;53.962;9.614;2022-09-02T04:07:40;102200.31;;;12.50
72675;BMP280;60752;53.962;9.614;2022-09-02T04:12:41;102194.78;;;12.52
72675;BMP280;60752;53.962;9.614;2022-09-02T04:17:41;102192.34;;;12.45
72675;BMP280;60752;53.962;9.614;2022-09-02T04:22:43;102195.94;;;12.39
72675;BMP280;60752;53.962;9.614;2022-09-02T04:27:43;102203.22;;;12.32
72675;BMP280;60752;53.962;9.614;2022-09-02T04:32:44;102196.56;;;12.24
72675;BMP280;60752;53.962;9.614;2022-09-02T04:37:46;102195.69;;;12.19
72675;BMP280;60752;53.962;9.614;2022-09-02T04:42:46;102196.59;;;12.08
72675;BMP280;60752;53.962;9.614;2022-09-02T04:47:47;102200.78;;;12.03
72675;BMP280;60752;53.962;9.614;2022-09-02T04:52:48;102198.16;;;11.87
72675;BMP280;60752;53.962;9.614;2022-09-02T04:57:49;102198.81;;;11.77
72675;BMP280;60752;53.962;9.614;2022-09-02T05:02:49;102199.44;;;11.84
72675;BMP280;60752;53.962;9.614;2022-09-02T05:07:51;102207.31;;;11.84
72675;BMP280;60752;53.962;9.614;2022-09-02T05:12:52;102212.59;;;12.06
72675;BMP280;60752;53.962;9.614;2022-09-02T05:17:52;102206.88;;;12.53
72675;BMP280;60752;53.962;9.614;2022-09-02T05:22:54;102215.13;;;12.88
72675;BMP280;60752;53.962;9.614;2022-09-02T05:27:54;102207.34;;;13.25
72675;BMP280;60752;53.962;9.614;2022-09-02T05:32:55;102204.19;;;13.66
72675;BMP280;60752;53.962;9.614;2022-09-02T05:37:57;102208.63;;;14.02
72675;BMP280;60752;53.962;9.614;2022-09-02T05:42:57;102210.03;;;14.25
72675;BMP280;60752;53.962;9.614;2022-09-02T05:47:58;102204.25;;;14.28
72675;BMP280;60752;53.962;9.614;2022-09-02T05:52:59;102217.13;;;14.19
72675;BMP280;60752;53.962;9.614;2022-09-02T05:58:00;102209.00;;;14.31
72675;BMP280;60752;53.962;9.614;2022-09-02T06:03:00;102208.44;;;14.24
72675;BMP280;60752;53.962;9.614;2022-09-02T06:08:02;102204.44;;;14.11
72675;BMP280;60752;53.962;9.614;2022-09-02T06:13:03;102203.97;;;14.24
72675;BMP280;60752;53.962;9.614;2022-09-02T06:18:03;102204.44;;;14.11
72675;BMP280;60752;53.962;9.614;2022-09-02T06:23:05;102204.66;;;14.05
72675;BMP280;60752;53.962;9.614;2022-09-02T06:28:06;102204.19;;;14.18
72675;BMP280;60752;53.962;9.614;2022-09-02T06:33:07;102205.28;;;14.37
72675;BMP280;60752;53.962;9.614;2022-09-02T06:38:12;102213.31;;;14.63
72675;BMP280;60752;53.962;9.614;2022-09-02T06:43:13;102219.13;;;15.00
72675;BMP280;60752;53.962;9.614;2022-09-02T06:48:13;102213.31;;;15.34
72675;BMP280;60752;53.962;9.614;2022-09-02T06:53:15;102217.41;;;15.85
72675;BMP280;60752;53.962;9.614;2022-09-02T06:58:16;102208.53;;;16.25
72675;BMP280;60752;53.962;9.614;2022-09-02T07:03:16;102207.84;;;16.83
72675;BMP280;60752;53.962;9.614;2022-09-02T07:08:18;102200.47;;;17.09
72675;BMP280;60752;53.962;9.614;2022-09-02T07:13:18;102192.84;;;17.55
72675;BMP280;60752;53.962;9.614;2022-09-02T07:18:19;102194.69;;;17.97
72675;BMP280;60752;53.962;9.614;2022-09-02T07:23:21;102205.72;;;18.23
72675;BMP280;60752;53.962;9.614;2022-09-02T07:28:21;102206.31;;;18.71
72675;BMP280;60752;53.962;9.614;2022-09-02T07:33:22;102195.66;;;19.17
72675;BMP280;60752;53.962;9.614;2022-09-02T07:38:24;102205.41;;;19.08
72675;BMP280;60752;53.962;9.614;2022-09-02T07:43:25;102197.72;;;18.93
72675;BMP280;60752;53.962;9.614;2022-09-02T07:48:26;102199.00;;;19.50
72675;BMP280;60752;53.962;9.614;2022-09-02T07:53:29;102199.50;;;19.88
72675;BMP280;60752;53.962;9.614;2022-09-02T07:58:29;102190.81;;;19.96
72675;BMP280;60752;53.962;9.614;2022-09-02T08:03:30;102191.97;;;20.26
72675;BMP280;60752;53.962;9.614;2022-09-02T08:08:32;102185.06;;;20.78
72675;BMP280;60752;53.962;9.614;2022-09-02T08:13:32;102187.44;;;20.27
72675;BMP280;60752;53.962;9.614;2022-09-02T08:18:33;102190.63;;;20.68
72675;BMP280;60752;53.962;9.614;2022-09-02T08:23:35;102186.59;;;20.71
72675;BMP280;60752;53.962;9.614;2022-09-02T08:28:35;102180.84;;;21.34
72675;BMP280;60752;53.962;9.614;2022-09-02T08:33:36;102176.63;;;21.50
72675;BMP280;60752;53.962;9.614;2022-09-02T08:38:37;102181.03;;;21.64
72675;BMP280;60752;53.962;9.614;2022-09-02T08:43:40;102176.75;;;21.88
72675;BMP280;60752;53.962;9.614;2022-09-02T08:48:45;102172.69;;;21.82
72675;BMP280;60752;53.962;9.614;2022-09-02T08:53:53;102167.84;;;21.67
72675;BMP280;60752;53.962;9.614;2022-09-02T08:58:56;102172.00;;;22.11
72675;BMP280;60752;53.962;9.614;2022-09-02T09:04:05;102170.03;;;21.82
72675;BMP280;60752;53.962;9.614;2022-09-02T09:09:15;102167.66;;;21.89
72675;BMP280;60752;53.962;9.614;2022-09-02T09:14:26;102162.50;;;22.02
72675;BMP280;60752;53.962;9.614;2022-09-02T09:19:36;102150.44;;;22.34
72675;BMP280;60752;53.962;9.614;2022-09-02T09:24:42;102142.78;;;22.23
72675;BMP280;60752;53.962;9.614;2022-09-02T09:29:42;102144.72;;;22.52
72675;BMP280;60752;53.962;9.614;2022-09-02T09:34:58;102131.88;;;22.84
72675;BMP280;60752;53.962;9.614;2022-09-02T09:40:23;102127.72;;;22.95
72675;BMP280;60752;53.962;9.614;2022-09-02T09:45:32;102118.09;;;22.73
72675;BMP280;60752;53.962;9.614;2022-09-02T09:50:33;102120.06;;;22.55
72675;BMP280;60752;53.962;9.614;2022-09-02T09:55:49;102110.78;;;22.23
72675;BMP280;60752;53.962;9.614;2022-09-02T10:00:51;102110.09;;;22.35
72675;BMP280;60752;53.962;9.614;2022-09-02T10:05:53;102106.47;;;22.40
72675;BMP280;60752;53.962;9.614;2022-09-02T10:10:58;102106.53;;;22.31
72675;BMP280;60752;53.962;9.614;2022-09-02T10:16:18;102104.13;;;22.30
72675;BMP280;60752;53.962;9.614;2022-09-02T10:21:30;102078.84;;;21.98
72675;BMP280;60752;53.962;9.614;2022-09-02T10:26:40;102087.84;;;21.76
72675;BMP280;60752;53.962;9.614;2022-09-02T10:31:48;102078.44;;;21.78
72675;BMP280;60752;53.962;9.614;2022-09-02T10:37:06;102066.97;;;21.86
72675;BMP280;60752;53.962;9.614;2022-09-02T10:42:17;102070.03;;;22.06
72675;BMP280;60752;53.962;9.614;2022-09-02T10:47:26;102067.25;;;21.94
72675;BMP280;60752;53.962;9.614;2022-09-02T10:53:02;102059.41;;;21.97
72675;BMP280;60752;53.962;9.614;2022-09-02T10:58:07;102046.84;;;21.98
72675;BMP280;60752;53.962;9.614;2022-09-02T11:03:12;102045.84;;;21.73
72675;BMP280;60752;53.962;9.614;2022-09-02T11:08:17;102048.81;;;21.63
72675;BMP280;60752;53.962;9.614;2022-09-02T11:13:27;102044.56;;;21.62
72675;BMP280;60752;53.962;9.614;2022-09-02T11:18:34;102029.63;;;21.78
72675;BMP280;60752;53.962;9.614;2022-09-02T11:23:40;102032.16;;;21.66
72675;BMP280;60752;53.962;9.614;2022-09-02T11:28:49;102023.94;;;21.50
72675;BMP280;60752;53.962;9.614;2022-09-02T11:33:56;102018.13;;;21.31
72675;BMP280;60752;53.962;9.614;2022-09-02T11:39:00;102012.03;;;21.30
72675;BMP280;60752;53.962;9.614;2022-09-02T11:44:17;102013.09;;;21.46
72675;BMP280;60752;53.962;9.614;2022-09-02T11:49:32;102007.78;;;21.38
72675;BMP280;60752;53.962;9.614;2022-09-02T11:54:39;102001.31;;;21.47
72675;BMP280;60752;53.962;9.614;2022-09-02T12:00:12;102002.72;;;21.62
72675;BMP280;60752;53.962;9.614;2022-09-02T12:05:44;102003.50;;;21.63
72675;BMP280;60752;53.962;9.614;2022-09-02T12:10:59;101994.84;;;21.66
72675;BMP280;60752;53.962;9.614;2022-09-02T12:16:35;101988.78;;;21.48
72675;BMP280;60752;53.962;9.614;2022-09-02T12:27:26;101975.16;;;21.49
72675;BMP280;60752;53.962;9.614;2022-09-02T12:33:04;101965.06;;;21.55
72675;BMP280;60752;53.962;9.614;2022-09-02T12:38:33;101955.38;;;21.50
72675;BMP280;60752;53.962;9.614;2022-09-02T12:43:36;101958.09;;;21.25
72675;BMP280;60752;53.962;9.614;2022-09-02T12:48:47;101953.06;;;21.40
72675;BMP280;60752;53.962;9.614;2022-09-02T12:53:49;101960.69;;;21.59
72675;BMP280;60752;53.962;9.614;2022-09-02T12:58:51;101956.28;;;21.55
72675;BMP280;60752;53.962;9.614;2022-09-02T13:04:11;101959.22;;;21.70
72675;BMP280;60752;53.962;9.614;2022-09-02T13:09:52;101948.19;;;21.42
72675;BMP280;60752;53.962;9.614;2022-09-02T13:15:12;101947.50;;;21.63
72675;BMP280;60752;53.962;9.614;2022-09-02T13:26:13;101933.22;;;21.67
72675;BMP280;60752;53.962;9.614;2022-09-02T13:31:19;101937.59;;;21.72
72675;BMP280;60752;53.962;9.614;2022-09-02T13:36:27;101921.41;;;21.77
72675;BMP280;60752;53.962;9.614;2022-09-02T13:41:32;101912.69;;;21.59
72675;BMP280;60752;53.962;9.614;2022-09-02T13:46:32;101925.13;;;21.46
72675;BMP280;60752;53.962;9.614;2022-09-02T13:51:33;101906.97;;;21.40
72675;BMP280;60752;53.962;9.614;2022-09-02T13:56:35;101910.31;;;21.28
72675;BMP280;60752;53.962;9.614;2022-09-02T14:01:37;101900.94;;;21.22
72675;BMP280;60752;53.962;9.614;2022-09-02T14:06:40;101898.50;;;21.38
72675;BMP280;60752;53.962;9.614;2022-09-02T14:11:44;101890.25;;;21.31
72675;BMP280;60752;53.962;9.614;2022-09-02T14:16:45;101873.91;;;21.41
72675;BMP280;60752;53.962;9.614;2022-09-02T14:21:47;101876.56;;;21.49
72675;BMP280;60752;53.962;9.614;2022-09-02T14:26:52;101866.97;;;21.48
72675;BMP280;60752;53.962;9.614;2022-09-02T14:32:10;101874.44;;;21.55
72675;BMP280;60752;53.962;9.614;2022-09-02T14:37:22;101872.56;;;21.64
72675;BMP280;60752;53.962;9.614;2022-09-02T14:42:24;101872.09;;;21.62
72675;BMP280;60752;53.962;9.614;2022-09-02T14:47:25;101864.13;;;21.54
72675;BMP280;60752;53.962;9.614;2022-09-02T14:52:27;101857.63;;;21.34
72675;BMP280;60752;53.962;9.614;2022-09-02T14:57:31;101854.97;;;21.34
72675;BMP280;60752;53.962;9.614;2022-09-02T15:02:33;101854.31;;;21.45
72675;BMP280;60752;53.962;9.614;2022-09-02T15:07:34;101861.75;;;21.61
72675;BMP280;60752;53.962;9.614;2022-09-02T15:12:39;101856.31;;;21.48
72675;BMP280;60752;53.962;9.614;2022-09-02T15:17:41;101856.66;;;21.38
72675;BMP280;60752;53.962;9.614;2022-09-02T15:22:42;101850.97;;;21.48
72675;BMP280;60752;53.962;9.614;2022-09-02T15:27:44;101841.06;;;21.58
72675;BMP280;60752;53.962;9.614;2022-09-02T15:32:44;101850.97;;;21.57
72675;BMP280;60752;53.962;9.614;2022-09-02T15:37:48;101845.53;;;21.36
72675;BMP280;60752;53.962;9.614;2022-09-02T15:42:50;101852.47;;;21.20
72675;BMP280;60752;53.962;9.614;2022-09-02T15:47:50;101857.75;;;20.99
72675;BMP280;60752;53.962;9.614;2022-09-02T15:52:51;101844.13;;;20.92
72675;BMP280;60752;53.962;9.614;2022-09-02T15:57:52;101849.91;;;20.94
72675;BMP280;60752;53.962;9.614;2022-09-02T16:02:53;101839.41;;;20.89
72675;BMP280;60752;53.962;9.614;2022-09-02T16:07:53;101836.59;;;20.94
72675;BMP280;60752;53.962;9.614;2022-09-02T16:12:55;101833.00;;;20.99
72675;BMP280;60752;53.962;9.614;2022-09-02T16:17:55;101832.50;;;21.05
72675;BMP280;60752;53.962;9.614;2022-09-02T16:22:56;101830.63;;;21.06
72675;BMP280;60752;53.962;9.614;2022-09-02T16:27:58;101835.16;;;20.97
72675;BMP280;60752;53.962;9.614;2022-09-02T16:32:58;101821.72;;;20.85
72675;BMP280;60752;53.962;9.614;2022-09-02T16:37:58;101819.56;;;20.78
72675;BMP280;60752;53.962;9.614;2022-09-02T16:43:00;101816.25;;;20.81
72675;BMP280;60752;53.962;9.614;2022-09-02T16:48:01;101817.97;;;20.77
72675;BMP280;60752;53.962;9.614;2022-09-02T16:53:02;101806.72;;;20.71
72675;BMP280;60752;53.962;9.614;2022-09-02T16:58:03;101803.88;;;20.76
72675;BMP280;60752;53.962;9.614;2022-09-02T17:03:04;101798.91;;;20.58
72675;BMP280;60752;53.962;9.614;2022-09-02T17:08:05;101796.88;;;20.55
72675;BMP280;60752;53.962;9.614;2022-09-02T17:13:07;101789.38;;;20.48
72675;BMP280;60752;53.962;9.614;2022-09-02T17:18:07;101799.41;;;20.25
72675;BMP280;60752;53.962;9.614;2022-09-02T17:23:08;101791.38;;;20.17
72675;BMP280;60752;53.962;9.614;2022-09-02T17:28:10;101790.28;;;19.92
72675;BMP280;60752;53.962;9.614;2022-09-02T17:33:10;101795.72;;;19.78
72675;BMP280;60752;53.962;9.614;2022-09-02T17:38:10;101793.66;;;19.66
72675;BMP280;60752;53.962;9.614;2022-09-02T17:43:12;101798.50;;;19.56
72675;BMP280;60752;53.962;9.614;2022-09-02T17:48:13;101799.25;;;19.48
72675;BMP280;60752;53.962;9.614;2022-09-02T17:53:13;101794.13;;;19.29
72675;BMP280;60752;53.962;9.614;2022-09-02T17:58:17;101801.59;;;19.18
72675;BMP280;60752;53.962;9.614;2022-09-02T18:03:35;101803.88;;;19.11
72675;BMP280;60752;53.962;9.614;2022-09-02T18:08:45;101802.47;;;19.05
72675;BMP280;60752;53.962;9.614;2022-09-02T18:13:55;101807.97;;;18.86
72675;BMP280;60752;53.962;9.614;2022-09-02T18:19:09;101802.88;;;18.76
72675;BMP280;60752;53.962;9.614;2022-09-02T18:24:13;101803.38;;;18.78
72675;BMP280;60752;53.962;9.614;2022-09-02T18:29:29;101814.34;;;18.63
72675;BMP280;60752;53.962;9.614;2022-09-02T18:34:43;101816.91;;;18.54
72675;BMP280;60752;53.962;9.614;2022-09-02T18:40:02;101826.09;;;18.48
72675;BMP280;60752;53.962;9.614;2022-09-02T18:45:10;101830.34;;;18.36
72675;BMP280;60752;53.962;9.614;2022-09-02T18:50:21;101822.00;;;18.28
72675;BMP280;60752;53.962;9.614;2022-09-02T18:55:28;101827.03;;;18.16
72675;BMP280;60752;53.962;9.614;2022-09-02T19:00:42;101827.44;;;18.10
72675;BMP280;60752;53.962;9.614;2022-09-02T19:05:44;101839.22;;;18.04
72675;BMP280;60752;53.962;9.614;2022-09-02T19:10:44;101838.13;;;18.05
72675;BMP280;60752;53.962;9.614;2022-09-02T19:15:46;101841.53;;;17.91
72675;BMP280;60752;53.962;9.614;2022-09-02T19:20:47;101842.44;;;17.87
72675;BMP280;60752;53.962;9.614;2022-09-02T19:25:48;101858.44;;;17.82
72675;BMP280;60752;53.962;9.614;2022-09-02T19:30:52;101852.53;;;17.71
72675;BMP280;60752;53.962;9.614;2022-09-02T19:35:56;101847.34;;;17.66
72675;BMP280;60752;53.962;9.614;2022-09-02T19:40:57;101858.00;;;17.61
72675;BMP280;60752;53.962;9.614;2022-09-02T19:45:58;101853.94;;;17.50
72675;BMP280;60752;53.962;9.614;2022-09-02T19:50:59;101851.28;;;17.36
72675;BMP280;60752;53.962;9.614;2022-09-02T19:55:59;101860.22;;;17.40
72675;BMP280;60752;53.962;9.614;2022-09-02T20:01:02;101866.16;;;17.32
72675;BMP280;60752;53.962;9.614;2022-09-02T20:06:03;101869.69;;;17.27
72675;BMP280;60752;53.962;9.614;2022-09-02T20:11:05;101865.53;;;17.21
72675;BMP280;60752;53.962;9.614;2022-09-02T20:16:14;101862.63;;;17.23
72675;BMP280;60752;53.962;9.614;2022-09-02T20:21:18;101867.69;;;17.19
72675;BMP280;60752;53.962;9.614;2022-09-02T20:26:30;101864.91;;;17.11
72675;BMP280;60752;53.962;9.614;2022-09-02T20:31:46;101875.06;;;17.04
72675;BMP280;60752;53.962;9.614;2022-09-02T20:36:55;101872.50;;;16.99
72675;BMP280;60752;53.962;9.614;2022-09-02T20:42:07;101874.56;;;17.02
72675;BMP280;60752;53.962;9.614;2022-09-02T20:47:31;101870.78;;;16.89
72675;BMP280;60752;53.962;9.614;2022-09-02T20:52:44;101882.94;;;16.90
72675;BMP280;60752;53.962;9.614;2022-09-02T20:58:00;101874.78;;;16.86
72675;BMP280;60752;53.962;9.614;2022-09-02T21:03:05;101868.66;;;16.91
72675;BMP280;60752;53.962;9.614;2022-09-02T21:08:10;101878.00;;;16.83
72675;BMP280;60752;53.962;9.614;2022-09-02T21:13:16;101884.22;;;16.74
72675;BMP280;60752;53.962;9.614;2022-09-02T21:18:25;101884.22;;;16.74
72675;BMP280;60752;53.962;9.614;2022-09-02T21:23:31;101883.97;;;16.70
72675;BMP280;60752;53.962;9.614;2022-09-02T21:28:36;101883.06;;;16.61
72675;BMP280;60752;53.962;9.614;2022-09-02T21:33:42;101883.34;;;16.59
72675;BMP280;60752;53.962;9.614;2022-09-02T21:38:44;101878.91;;;16.55
72675;BMP280;60752;53.962;9.614;2022-09-02T21:43:51;101879.69;;;16.55
72675;BMP280;60752;53.962;9.614;2022-09-02T21:49:01;101888.41;;;16.56
72675;BMP280;60752;53.962;9.614;2022-09-02T21:54:22;101890.84;;;16.52
72675;BMP280;60752;53.962;9.614;2022-09-02T21:59:46;101887.53;;;16.42
72675;BMP280;60752;53.962;9.614;2022-09-02T22:04:58;101892.09;;;16.36
72675;BMP280;60752;53.962;9.614;2022-09-02T22:10:05;101887.44;;;16.23
72675;BMP280;60752;53.962;9.614;2022-09-02T22:15:12;101890.66;;;16.20
72675;BMP280;60752;53.962;9.614;2022-09-02T22:20:17;101880.66;;;16.17
72675;BMP280;60752;53.962;9.614;2022-09-02T22:25:19;101883.53;;;16.20
72675;BMP280;60752;53.962;9.614;2022-09-02T22:30:19;101880.44;;;16.13
72675;BMP280;60752;53.962;9.614;2022-09-02T22:35:25;101880.84;;;16.02
72675;BMP280;60752;53.962;9.614;2022-09-02T22:40:28;101880.56;;;15.98
72675;BMP280;60752;53.962;9.614;2022-09-02T22:45:33;101881.72;;;15.92
72675;BMP280;60752;53.962;9.614;2022-09-02T22:50:39;101888.88;;;15.86
72675;BMP280;60752;53.962;9.614;2022-09-02T22:55:52;101883.09;;;15.84
72675;BMP280;60752;53.962;9.614;2022-09-02T23:01:01;101889.69;;;15.87
72675;BMP280;60752;53.962;9.614;2022-09-02T23:06:08;101885.50;;;15.81
72675;BMP280;60752;53.962;9.614;2022-09-02T23:11:18;101878.84;;;15.83
72675;BMP280;60752;53.962;9.614;2022-09-02T23:16:28;101877.59;;;15.81
72675;BMP280;60752;53.962;9.614;2022-09-02T23:21:37;101875.25;;;15.74
72675;BMP280;60752;53.962;9.614;2022-09-02T23:26:43;101871.31;;;15.72
72675;BMP280;60752;53.962;9.614;2022-09-02T23:31:55;101856.81;;;15.69
72675;BMP280;60752;53.962;9.614;2022-09-02T23:37:05;101856.63;;;15.60
72675;BMP280;60752;53.962;9.614;2022-09-02T23:42:11;101847.66;;;15.62
72675;BMP280;60752;53.962;9.614;2022-09-02T23:47:24;101854.25;;;15.59
72675;BMP280;60752;53.962;9.614;2022-09-02T23:52:34;101848.03;;;15.50
72675;BMP280;60752;53.962;9.614;2022-09-02T23:57:59;101849.91;;;15.44
